Time;durP1;ratioP1;P1;durP2;ratioP2;P2;SDS_P1;SDS_P2;PMS_P1;PMS_P2;Temp;Humidity;BMP_temperature;BMP_pressure;BME280_temperature;BME280_humidity;BME280_pressure;Samples;Min_cycle;Max_cycle;Signal;HPM_P1;HPM_P2
2023/10/19 00:00:21;;;;;;;;;27.33;15.67;;;;;-143.90;100.00;76069.56;4968100;28;103304;-77
2023/10/19 00:02:51;;;;;;;;;25.33;20.33;;;;;-143.90;100.00;76067.50;4972310;28;101814;-76
2023/10/19 00:05:19;;;;;;;;;15.00;13.00;;;;;-143.90;100.00;76077.84;4961588;28;101538;-77
2023/10/19 00:07:46;;;;;;;;;23.00;21.33;;;;;-143.90;100.00;76073.72;4960789;28;103036;-77
2023/10/19 00:10:16;;;;;;;;;34.00;29.33;;;;;-143.90;100.00;76077.84;4963383;28;103677;-77
2023/10/19 00:12:43;;;;;;;;;61.67;47.00;;;;;-143.90;100.00;76098.53;4974171;28;101820;-75
2023/10/19 00:15:12;;;;;;;;;66.75;52.50;;;;;-143.90;100.00;76106.78;4973562;28;103525;-77
2023/10/19 00:17:39;;;;;;;;;61.67;45.00;;;;;-143.90;100.00;76110.94;4974235;28;101685;-77
2023/10/19 00:22:53;;;;;;;;;70.50;55.00;;;;;-143.90;100.00;76104.72;4967100;28;103153;-78
2023/10/19 00:25:23;;;;;;;;;57.00;43.67;;;;;-143.90;100.00;76096.44;4969255;28;102835;-77
2023/10/19 00:27:50;;;;;;;;;56.67;44.67;;;;;-143.90;100.00;76084.03;4974358;28;102118;-78
2023/10/19 00:30:21;;;;;;;;;42.33;33.67;;;;;-143.90;100.00;76079.91;4971810;28;103547;-76
2023/10/19 00:32:47;;;;;;;;;43.00;35.67;;;;;-143.90;100.00;76073.72;4970933;28;101912;-77
2023/10/19 00:35:36;;;;;;;;;70.25;52.75;;;;;-143.90;100.00;76081.97;4968753;28;102482;-76
2023/10/19 00:40:53;;;;;;;;;73.00;54.75;;;;;-143.90;100.00;76079.91;4968477;28;107897;-77
2023/10/19 00:43:36;;;;;;;;;66.00;51.00;;;;;-143.90;100.00;76065.44;4972133;28;101916;-78
2023/10/19 00:46:09;;;;;;;;;60.00;46.33;;;;;-143.90;100.00;76069.56;4972701;28;102883;-76
2023/10/19 00:48:37;;;;;;;;;76.50;55.50;;;;;-143.90;100.00;76069.56;4976036;28;101713;-76
2023/10/19 00:51:08;;;;;;;;;66.25;48.50;;;;;-143.90;100.00;76063.38;4969816;28;107951;-78
2023/10/19 00:53:38;;;;;;;;;62.00;46.00;;;;;-143.90;100.00;76055.09;4977432;28;102477;-77
2023/10/19 00:56:09;;;;;;;;;64.00;47.00;;;;;-143.90;100.00;76048.88;4971244;28;101632;-77
2023/10/19 00:58:39;;;;;;;;;42.00;36.33;;;;;-143.90;100.00;76044.75;4959447;28;101813;-77
2023/10/19 01:01:06;;;;;;;;;49.00;42.67;;;;;-143.90;100.00;76036.47;4970045;28;108039;-75
2023/10/19 01:03:36;;;;;;;;;74.75;55.50;;;;;-143.90;100.00;76040.63;4972116;28;101862;-77
2023/10/19 01:06:14;;;;;;;;;65.33;46.00;;;;;-143.90;100.00;76034.41;4965629;28;101520;-77
2023/10/19 01:08:44;;;;;;;;;75.75;55.00;;;;;-143.90;100.00;76038.56;4958597;28;102167;-77
2023/10/19 01:11:15;;;;;;;;;61.00;45.00;;;;;-143.90;100.00;76032.34;4962246;28;103521;-78
2023/10/19 01:13:44;;;;;;;;;55.67;43.00;;;;;-143.90;100.00;76030.28;4964953;28;103394;-77
2023/10/19 01:16:20;;;;;;;;;69.67;52.00;;;;;-143.90;100.00;76034.41;4970324;28;101559;-77
2023/10/19 01:18:53;;;;;;;;;79.50;60.50;;;;;-143.90;100.00;76042.69;4968364;28;109094;-78
2023/10/19 01:21:25;;;;;;;;;76.50;54.75;;;;;-143.90;100.00;76032.34;4970531;28;107978;-77
2023/10/19 01:23:52;;;;;;;;;69.67;52.00;;;;;-143.90;100.00;76028.22;4976410;28;101926;-77
2023/10/19 01:26:25;;;;;;;;;68.50;55.75;;;;;-143.90;100.00;76024.06;4968623;28;101880;-75
2023/10/19 01:29:07;;;;;;;;;62.67;47.00;;;;;-143.90;100.00;76017.88;4972197;28;102022;-77
2023/10/19 01:31:38;;;;;;;;;55.00;45.50;;;;;-143.90;100.00;76011.66;4971851;28;103681;-76
2023/10/19 01:34:06;;;;;;;;;74.75;55.50;;;;;-143.90;100.00;75999.25;4956460;28;101877;-77
2023/10/19 01:36:43;;;;;;;;;71.25;56.00;;;;;-143.90;100.00;75993.06;4970761;28;102884;-76
2023/10/19 01:39:11;;;;;;;;;63.33;46.00;;;;;-143.90;100.00;75978.59;4971528;28;101929;-76
2023/10/19 01:41:41;;;;;;;;;41.67;36.00;;;;;-143.90;100.00;75959.97;4971243;28;103753;-77
2023/10/19 01:44:12;;;;;;;;;43.33;35.33;;;;;-143.90;100.00;75949.63;4968768;28;101971;-78
2023/10/19 01:46:40;;;;;;;;;45.67;36.00;;;;;-143.90;100.00;75959.97;4971423;28;101759;-76
2023/10/19 01:49:08;;;;;;;;;46.33;39.67;;;;;-143.90;100.00;75945.50;4970214;28;101947;-76
2023/10/19 01:51:38;;;;;;;;;65.67;49.33;;;;;-143.90;100.00;75949.63;4974763;28;103252;-76
2023/10/19 01:54:07;;;;;;;;;58.67;44.33;;;;;-143.90;100.00;75943.44;4972838;28;102077;-75
2023/10/19 01:56:35;;;;;;;;;59.00;45.00;;;;;-143.90;100.00;75949.63;4977754;28;101891;-76
2023/10/19 01:59:08;;;;;;;;;49.00;37.33;;;;;-143.90;100.00;75933.09;4973475;28;101968;-77
2023/10/19 02:01:37;;;;;;;;;49.00;37.67;;;;;-143.90;100.00;75924.81;4976696;28;103616;-77
2023/10/19 02:04:05;;;;;;;;;40.67;35.00;;;;;-143.90;100.00;75914.47;4977366;28;103154;-77
2023/10/19 02:06:36;;;;;;;;;36.67;26.00;;;;;-143.90;100.00;75910.34;4980437;28;101816;-76
2023/10/19 02:09:09;;;;;;;;;23.00;20.33;;;;;-143.90;100.00;75904.16;4980174;28;101821;-76
2023/10/19 02:11:41;;;;;;;;;51.00;40.33;;;;;-143.90;100.00;75918.63;4978801;28;103528;-76
2023/10/19 02:14:15;;;;;;;;;57.33;45.67;;;;;-143.90;100.00;75920.69;4982043;28;101995;-76
2023/10/19 02:16:53;;;;;;;;;69.33;50.33;;;;;-143.90;100.00;75918.63;4979268;28;101783;-76
2023/10/19 02:19:21;;;;;;;;;69.00;48.67;;;;;-143.90;100.00;75922.75;4980855;28;101846;-75
2023/10/19 02:21:58;;;;;;;;;65.33;46.33;;;;;-143.90;100.00;75920.69;4983929;28;103507;-73
2023/10/19 02:24:26;;;;;;;;;62.67;47.67;;;;;-143.90;100.00;75920.69;4981355;28;101974;-76
2023/10/19 02:26:55;;;;;;;;;71.33;53.67;;;;;-143.90;100.00;75920.69;4976972;28;102268;-76
2023/10/19 02:29:22;;;;;;;;;76.33;55.33;;;;;-143.90;100.00;75928.97;4978051;28;101904;-76
2023/10/19 02:31:49;;;;;;;;;73.25;55.00;;;;;-143.90;100.00;75931.03;4976491;28;103372;-76
2023/10/19 02:34:16;;;;;;;;;62.33;52.00;;;;;-143.90;100.00;75928.97;4982764;28;102242;-75
2023/10/19 02:36:44;;;;;;;;;70.67;54.00;;;;;-143.90;100.00;75931.03;4975790;28;108295;-77
2023/10/19 02:39:14;;;;;;;;;69.67;55.67;;;;;-143.90;100.00;75924.81;4979388;28;101827;-77
2023/10/19 02:41:43;;;;;;;;;74.00;53.33;;;;;-143.90;100.00;75916.56;4979115;28;103429;-76
2023/10/19 02:44:19;;;;;;;;;55.00;44.67;;;;;-143.90;100.00;75910.34;4972930;28;103085;-76
2023/10/19 02:46:49;;;;;;;;;50.33;40.67;;;;;-143.90;100.00;75910.34;4981213;28;102022;-77
2023/10/19 02:49:20;;;;;;;;;46.33;38.67;;;;;-143.90;100.00;75910.34;4979918;28;102071;-75
2023/10/19 02:51:48;;;;;;;;;56.00;44.00;;;;;-143.90;100.00;75916.56;4983302;28;108184;-76
2023/10/19 02:54:24;;;;;;;;;64.33;49.33;;;;;-143.90;100.00;75920.69;4979177;28;102088;-74
2023/10/19 02:56:53;;;;;;;;;45.67;38.67;;;;;-143.90;100.00;75908.28;4980217;28;102074;-75
2023/10/19 02:59:24;;;;;;;;;75.25;55.50;;;;;-143.90;100.00;75904.16;4979549;28;101831;-76
2023/10/19 03:04:35;;;;;;;;;67.25;52.25;;;;;-143.90;100.00;75866.94;4977957;28;101709;-75
2023/10/19 03:07:03;;;;;;;;;62.00;45.67;;;;;-143.90;100.00;75848.31;4961921;28;102818;-76
2023/10/19 03:09:32;;;;;;;;;60.33;44.33;;;;;-143.90;100.00;75835.91;4981686;28;101617;-76
2023/10/19 03:12:05;;;;;;;;;60.00;47.33;;;;;-143.90;100.00;75815.22;4975386;28;103768;-76
2023/10/19 03:14:32;;;;;;;;;68.00;53.00;;;;;-143.90;100.00;75804.91;4974047;28;102260;-77
2023/10/19 03:17:00;;;;;;;;;55.67;45.00;;;;;-143.90;100.00;75800.75;4973200;28;101743;-76
2023/10/19 03:19:27;;;;;;;;;55.00;45.33;;;;;-143.90;100.00;75784.22;4976527;28;101830;-76
2023/10/19 03:21:55;;;;;;;;;65.00;50.33;;;;;-143.90;100.00;75780.09;4970891;28;103324;-76
2023/10/19 03:24:35;;;;;;;;;51.33;44.33;;;;;-143.90;100.00;75759.41;4979630;28;102074;-76
2023/10/19 03:27:25;;;;;;;;;55.00;44.00;;;;;-143.90;100.00;75751.13;4787755;28;5001137;-76
2023/10/19 03:29:54;;;;;;;;;72.67;55.00;;;;;-143.90;100.00;75744.94;4969815;28;101970;-76
2023/10/19 03:32:26;;;;;;;;;54.67;38.67;;;;;-143.90;100.00;75728.38;4972464;28;103454;-76
2023/10/19 03:34:55;;;;;;;;;51.00;40.00;;;;;-143.90;100.00;75713.91;4969826;28;102191;-76
2023/10/19 03:37:24;;;;;;;;;43.00;35.33;;;;;-143.90;100.00;75695.31;4973910;28;101724;-76
2023/10/19 03:39:51;;;;;;;;;53.67;44.33;;;;;-143.90;100.00;75697.38;4967891;28;101975;-75
2023/10/19 03:42:20;;;;;;;;;48.33;43.33;;;;;-143.90;100.00;75701.50;4973480;28;103509;-75
2023/10/19 03:47:18;;;;;;;;;61.00;45.00;;;;;-143.90;100.00;75684.97;4968180;28;101919;-77
2023/10/19 03:49:48;;;;;;;;;62.33;51.67;;;;;-143.90;100.00;75689.09;4941725;28;102798;-77
2023/10/19 03:54:43;;;;;;;;;48.67;40.00;;;;;-143.90;100.00;75653.94;4972441;28;102017;-77
2023/10/19 03:57:29;;;;;;;;;47.33;42.33;;;;;-143.90;100.00;75643.63;4979491;28;101890;-77
2023/10/19 03:59:57;;;;;;;;;40.33;38.00;;;;;-143.90;100.00;75633.28;4970357;28;102225;-76
2023/10/19 04:02:29;;;;;;;;;38.67;33.67;;;;;-143.90;100.00;75625.00;4970092;28;106319;-76
2023/10/19 04:05:01;;;;;;;;;38.00;34.00;;;;;-143.90;100.00;75606.41;4969777;28;101831;-76
2023/10/19 04:07:31;;;;;;;;;34.33;30.33;;;;;-143.90;100.00;75602.25;4972249;28;101586;-76
2023/10/19 04:12:36;;;;;;;;;30.00;25.67;;;;;-143.90;100.00;75581.59;4995279;28;103588;-77
2023/10/19 04:15:17;;;;;;;;;20.00;18.00;;;;;-143.90;100.00;75567.13;4995492;27;102231;-76
2023/10/19 04:17:48;;;;;;;;;24.67;16.33;;;;;-143.90;100.00;75554.72;4992981;27;101808;-75
2023/10/19 04:22:46;;;;;;;;;14.00;13.00;;;;;-143.90;100.00;75521.63;4993706;28;108110;-76
2023/10/19 04:25:18;;;;;;;;;17.25;13.75;;;;;-143.90;100.00;75519.56;4993230;28;101928;-77
2023/10/19 04:27:47;;;;;;;;;14.25;13.00;;;;;-143.90;100.00;75511.28;4991078;27;101942;-76
2023/10/19 04:30:15;;;;;;;;;18.25;13.50;;;;;-143.90;100.00;75503.03;4993614;27;101677;-78
2023/10/19 04:32:43;;;;;;;;;15.50;14.25;;;;;-143.90;100.00;75496.81;4993897;27;103484;-76
2023/10/19 04:35:13;;;;;;;;;15.00;10.25;;;;;-143.90;100.00;75490.63;4998232;27;101785;-77
2023/10/19 04:37:42;;;;;;;;;26.67;25.00;;;;;-143.90;100.00;75498.88;4998964;28;101790;-76
2023/10/19 04:40:10;;;;;;;;;24.33;21.67;;;;;-143.90;100.00;75488.53;4991761;27;101674;-76
2023/10/19 04:42:39;;;;;;;;;60.67;46.00;;;;;-143.90;100.00;75494.75;4994041;27;103785;-77
2023/10/19 04:45:06;;;;;;;;;48.33;37.67;;;;;-143.90;100.00;75480.28;4995411;27;101759;-76
2023/10/19 04:47:35;;;;;;;;;45.67;40.00;;;;;-143.90;100.00;75474.06;4995002;28;106019;-77
2023/10/19 04:50:03;;;;;;;;;39.33;31.67;;;;;-143.90;100.00;75478.22;4997298;27;102579;-77
2023/10/19 04:52:30;;;;;;;;;34.00;27.67;;;;;-143.90;100.00;75461.66;4997282;27;103334;-76
2023/10/19 04:54:57;;;;;;;;;19.67;14.67;;;;;-143.90;100.00;75459.59;4991572;27;101569;-77
2023/10/19 04:57:25;;;;;;;;;21.67;18.00;;;;;-143.90;100.00;75445.13;4998215;27;101608;-76
2023/10/19 04:59:52;;;;;;;;;39.67;37.00;;;;;-143.90;100.00;75459.59;4997644;27;101826;-77
2023/10/19 05:02:19;;;;;;;;;50.67;39.67;;;;;-143.90;100.00;75465.81;4988340;27;103300;-77
2023/10/19 05:04:45;;;;;;;;;43.33;33.67;;;;;-143.90;100.00;75445.13;4998192;27;101831;-76
2023/10/19 05:07:16;;;;;;;;;43.67;37.33;;;;;-143.90;100.00;75449.25;4986878;27;101985;-75
2023/10/19 05:09:44;;;;;;;;;53.00;39.00;;;;;-143.90;100.00;75441.00;4990514;27;101664;-75
2023/10/19 05:12:11;;;;;;;;;45.33;36.67;;;;;-143.90;100.00;75445.13;4994328;27;103449;-76
2023/10/19 05:14:39;;;;;;;;;56.00;43.33;;;;;-143.90;100.00;75457.53;4998661;27;104640;-77
2023/10/19 05:17:06;;;;;;;;;65.33;52.00;;;;;-143.90;100.00;75459.59;4996171;27;101692;-76
2023/10/19 05:19:33;;;;;;;;;64.67;47.00;;;;;-143.90;100.00;75441.00;4997675;27;102455;-76
2023/10/19 05:22:06;;;;;;;;;61.33;50.67;;;;;-143.90;100.00;75424.44;4996255;27;103473;-76
2023/10/19 05:24:33;;;;;;;;;58.33;44.00;;;;;-143.90;100.00;75412.03;4993077;27;101947;-76
2023/10/19 05:26:59;;;;;;;;;62.33;46.67;;;;;-143.90;100.00;75393.44;4999729;27;101449;-77
2023/10/19 05:29:26;;;;;;;;;64.67;48.00;;;;;-143.90;100.00;75378.97;4996576;27;101619;-76
2023/10/19 05:31:54;;;;;;;;;39.33;36.67;;;;;-143.90;100.00;75366.56;4998007;27;103726;-76
2023/10/19 05:34:21;;;;;;;;;67.33;47.67;;;;;-143.90;100.00;75370.69;4994988;27;101935;-76
2023/10/19 05:36:51;;;;;;;;;60.67;46.67;;;;;-143.90;100.00;75362.44;4984616;27;102119;-76
2023/10/19 05:39:19;;;;;;;;;63.00;50.00;;;;;-143.90;100.00;75343.81;4996291;27;105821;-76
2023/10/19 05:41:45;;;;;;;;;57.67;44.00;;;;;-143.90;100.00;75337.63;4975682;28;108230;-77
2023/10/19 05:44:12;;;;;;;;;60.33;47.67;;;;;-143.90;100.00;75329.34;4995690;27;102691;-77
2023/10/19 05:46:40;;;;;;;;;51.00;42.33;;;;;-143.90;100.00;75321.06;4994995;27;101909;-75
2023/10/19 05:49:07;;;;;;;;;52.33;42.67;;;;;-143.90;100.00;75308.66;4996861;27;101582;-76
2023/10/19 05:51:34;;;;;;;;;41.33;33.33;;;;;-143.90;100.00;75304.53;4994171;27;103615;-75
2023/10/19 05:54:04;;;;;;;;;34.00;32.00;;;;;-143.90;100.00;75296.25;4985712;27;102498;-76
2023/10/19 05:56:34;;;;;;;;;29.33;27.67;;;;;-143.90;100.00;75288.00;4986909;27;102300;-76
2023/10/19 05:59:01;;;;;;;;;43.00;35.67;;;;;-143.90;100.00;75292.13;4990768;27;101903;-75
2023/10/19 06:01:28;;;;;;;;;43.33;36.33;;;;;-143.90;100.00;75279.72;4988921;27;103352;-76
2023/10/19 06:03:56;;;;;;;;;38.00;33.33;;;;;-143.90;100.00;75283.84;4975911;28;101881;-76
2023/10/19 06:06:23;;;;;;;;;35.67;32.33;;;;;-143.90;100.00;75279.72;4995009;28;101975;-76
2023/10/19 06:08:53;;;;;;;;;35.33;28.67;;;;;-143.90;100.00;75265.25;4993384;27;103359;-75
2023/10/19 06:11:21;;;;;;;;;27.00;23.00;;;;;-143.90;100.00;75259.06;4995862;27;107681;-75
2023/10/19 06:13:47;;;;;;;;;34.50;27.25;;;;;-143.90;100.00;75246.66;4998005;28;101826;-76
2023/10/19 06:16:14;;;;;;;;;31.25;25.00;;;;;-143.90;100.00;75242.50;4997320;28;101743;-76
2023/10/19 06:18:43;;;;;;;;;19.50;16.00;;;;;-143.90;100.00;75230.09;4993624;28;102123;-75
2023/10/19 06:21:12;;;;;;;;;32.75;24.25;;;;;-143.90;100.00;75225.97;4988435;28;103350;-77
2023/10/19 06:23:38;;;;;;;;;40.00;36.00;;;;;-143.90;100.00;75238.38;4979366;28;101670;-77
2023/10/19 06:26:11;;;;;;;;;42.67;36.67;;;;;-143.90;100.00;75230.09;4991376;28;103206;-77
2023/10/19 06:28:41;;;;;;;;;42.67;35.67;;;;;-143.90;100.00;75223.91;5000049;27;101967;-77
2023/10/19 06:31:08;;;;;;;;;50.67;40.00;;;;;-143.90;100.00;75219.78;4988571;28;103357;-76
2023/10/19 06:33:36;;;;;;;;;34.67;31.00;;;;;-143.90;100.00;75211.50;4997874;27;101672;-76
2023/10/19 06:36:03;;;;;;;;;33.50;25.50;;;;;-143.90;100.00;75201.16;4994283;28;101633;-76
2023/10/19 06:38:31;;;;;;;;;42.00;38.00;;;;;-143.90;100.00;75199.09;4991502;28;101920;-77
2023/10/19 06:40:59;;;;;;;;;36.00;31.50;;;;;-143.90;100.00;75180.50;4970276;28;103387;-76
2023/10/19 06:43:28;;;;;;;;;42.00;34.00;;;;;-143.90;100.00;75172.22;4993117;28;102050;-76
2023/10/19 06:46:00;;;;;;;;;29.50;27.25;;;;;-143.90;100.00;75176.34;4994499;27;101879;-77
2023/10/19 06:48:27;;;;;;;;;41.00;33.50;;;;;-143.90;100.00;75176.34;4954944;28;102774;-76
2023/10/19 06:50:53;;;;;;;;;39.00;33.00;;;;;-143.90;100.00;75168.09;4978309;28;103605;-76
2023/10/19 06:53:21;;;;;;;;;39.33;32.00;;;;;-143.90;100.00;75161.88;4996109;28;101815;-76
2023/10/19 06:55:48;;;;;;;;;41.67;37.00;;;;;-143.90;100.00;75163.94;5002865;28;101893;-77
2023/10/19 06:58:14;;;;;;;;;31.75;27.50;;;;;-143.90;100.00;75143.28;4996260;28;103078;-76
2023/10/19 07:00:44;;;;;;;;;39.00;35.00;;;;;-143.90;100.00;75139.16;4981541;27;103694;-76
2023/10/19 07:03:13;;;;;;;;;41.50;37.75;;;;;-143.90;100.00;75139.16;4996192;27;101925;-76
2023/10/19 07:05:40;;;;;;;;;22.25;19.00;;;;;-143.90;100.00;75118.47;4997183;28;102046;-75
2023/10/19 07:08:07;;;;;;;;;40.33;31.67;;;;;-143.90;100.00;75108.13;5000380;28;102041;-76
2023/10/19 07:10:34;;;;;;;;;48.33;40.00;;;;;-143.90;100.00;75095.72;4995572;28;103453;-76
2023/10/19 07:13:01;;;;;;;;;51.33;40.33;;;;;-143.90;100.00;75093.66;5001672;28;101746;-77
2023/10/19 07:15:29;;;;;;;;;38.00;35.33;;;;;-143.90;100.00;75087.47;4995233;28;101654;-76
2023/10/19 07:17:58;;;;;;;;;57.67;41.00;;;;;-143.90;100.00;75066.78;5003245;28;102494;-76
2023/10/19 07:20:38;;;;;;;;;52.00;39.67;;;;;-143.90;100.00;75052.31;4997906;28;103483;-76
2023/10/19 07:23:26;;;;;;;;;48.67;39.33;;;;;-143.90;100.00;75031.63;5000453;28;103743;-76
2023/10/19 07:25:59;;;;;;;;;52.00;41.33;;;;;-143.90;100.00;75023.38;4995865;28;101775;-76
2023/10/19 07:28:26;;;;;;;;;52.33;43.33;;;;;-143.90;100.00;75033.72;4981662;28;101874;-74
2023/10/19 07:30:53;;;;;;;;;52.00;41.00;;;;;-143.90;100.00;75039.91;4997814;28;103543;-76
2023/10/19 07:33:20;;;;;;;;;57.33;48.00;;;;;-143.90;100.00;75027.50;4997190;28;101870;-76
2023/10/19 07:35:52;;;;;;;;;51.67;42.00;;;;;-143.90;100.00;75006.84;4995956;28;102164;-76
2023/10/19 07:38:22;;;;;;;;;50.33;41.00;;;;;-143.90;100.00;74971.69;4995286;28;101948;-77
2023/10/19 07:40:52;;;;;;;;;43.00;37.25;;;;;-143.90;100.00;74955.16;4998122;28;103346;-76
2023/10/19 07:43:20;;;;;;;;;51.33;40.67;;;;;-143.90;100.00;74936.53;4976165;28;101931;-76
2023/10/19 07:45:47;;;;;;;;;49.00;39.00;;;;;-143.90;99.53;74913.81;4999422;27;101529;-76
2023/10/19 07:48:14;;;;;;;;;39.25;35.25;;;;;-143.90;100.00;74893.13;4997896;28;101978;-76
2023/10/19 07:50:42;;;;;;;;;32.25;28.50;;;;;-143.90;99.16;74878.66;4997765;27;104149;-76
2023/10/19 07:53:10;;;;;;;;;35.50;28.75;;;;;-143.90;97.77;74866.25;4998421;27;102081;-76
2023/10/19 07:55:38;;;;;;;;;37.00;28.75;;;;;-143.90;98.29;74845.59;4992209;27;102064;-77
2023/10/19 07:58:08;;;;;;;;;36.75;33.25;;;;;-143.90;96.03;74837.31;4998182;28;101558;-76
2023/10/19 08:00:36;;;;;;;;;35.25;29.50;;;;;-143.90;97.67;74824.91;4991659;28;103545;-76
2023/10/19 08:03:08;;;;;;;;;49.25;35.50;;;;;-143.90;99.04;74829.03;4977788;28;101946;-76
2023/10/19 08:05:36;;;;;;;;;40.25;35.50;;;;;-143.90;98.55;74810.44;4992986;28;102085;-77
2023/10/19 08:08:03;;;;;;;;;36.75;33.50;;;;;-143.90;97.21;74789.78;4995664;28;101847;-76
2023/10/19 08:10:31;;;;;;;;;35.50;27.75;;;;;-143.90;95.26;74775.31;4992426;28;103416;-77
2023/10/19 08:12:59;;;;;;;;;39.50;31.75;;;;;-143.90;96.06;74777.38;4998836;27;101968;-76
2023/10/19 08:15:28;;;;;;;;;34.50;26.75;;;;;-143.90;94.96;74775.31;4993173;27;101659;-75
2023/10/19 08:17:55;;;;;;;;;33.25;27.50;;;;;-143.90;96.34;74756.69;4994884;28;101811;-77
2023/10/19 08:20:31;;;;;;;;;33.00;29.00;;;;;-143.90;92.66;74748.44;4998482;27;108296;-77
2023/10/19 08:23:01;;;;;;;;;42.75;34.25;;;;;-143.90;92.69;74738.09;4991473;27;102045;-77
2023/10/19 08:25:29;;;;;;;;;41.75;35.00;;;;;-143.90;93.21;74721.56;4994872;27;101849;-76
2023/10/19 08:28:15;;;;;;;;;45.75;38.00;;;;;-143.90;94.59;74694.69;4995381;27;106143;-77
2023/10/19 08:30:44;;;;;;;;;38.00;35.25;;;;;-143.90;94.60;74690.53;4994958;27;103555;-77
2023/10/19 08:33:13;;;;;;;;;35.50;29.50;;;;;-143.90;94.75;74674.00;4995548;27;102365;-76
2023/10/19 08:35:41;;;;;;;;;36.50;32.00;;;;;-143.90;94.79;74653.34;4997131;27;101780;-77
2023/10/19 08:38:11;;;;;;;;;40.00;34.25;;;;;-143.90;94.68;74638.88;4999269;27;101609;-78
2023/10/19 08:40:39;;;;;;;;;35.75;31.00;;;;;-143.90;91.66;74622.34;4995195;28;103544;-77
2023/10/19 08:43:09;;;;;;;;;25.00;21.25;;;;;-143.90;91.93;74591.31;4998903;27;101887;-77
2023/10/19 08:45:36;;;;;;;;;24.00;21.50;;;;;-143.90;90.55;74568.59;4972012;28;102109;-77
2023/10/19 08:48:04;;;;;;;;;37.00;31.50;;;;;-143.90;89.37;74591.31;5000249;28;101731;-77
2023/10/19 08:50:33;;;;;;;;;33.00;27.75;;;;;-143.90;91.49;74568.59;4991581;27;103645;-77
2023/10/19 08:53:04;;;;;;;;;22.50;16.25;;;;;-143.90;88.64;74574.78;4997143;27;101897;-76
2023/10/19 08:55:34;;;;;;;;;31.00;24.00;;;;;-143.90;87.23;74568.59;4993578;28;101588;-75
2023/10/19 08:58:15;;;;;;;;;20.75;19.50;;;;;-143.90;87.00;74545.84;4996656;27;101623;-76
2023/10/19 09:00:56;;;;;;;;;20.00;19.25;;;;;-143.90;85.59;74527.25;4994116;27;103376;-76
2023/10/19 09:03:24;;;;;;;;;31.75;26.75;;;;;-143.90;87.13;74527.25;4994318;28;101899;-77
2023/10/19 09:05:53;;;;;;;;;33.00;28.25;;;;;-143.90;84.05;74529.31;4998060;28;102260;-77
2023/10/19 09:08:22;;;;;;;;;37.25;29.25;;;;;-143.90;88.04;74535.50;4994954;28;102004;-77
2023/10/19 09:10:53;;;;;;;;;16.00;9.00;;;;;-143.90;86.08;74523.09;4995107;27;103339;-76
2023/10/19 09:13:22;;;;;;;;;32.25;26.50;;;;;-143.90;88.24;74510.72;4991573;27;101999;-78
2023/10/19 09:15:53;;;;;;;;;32.75;29.75;;;;;-143.90;89.46;74490.03;4997869;28;101866;-76
2023/10/19 09:18:23;;;;;;;;;23.75;20.75;;;;;-143.90;87.21;74479.69;4995387;28;102081;-76
2023/10/19 09:23:49;;;;;;;;;23.50;20.00;;;;;-143.90;87.33;74465.22;4958843;27;101954;-77
2023/10/19 09:26:16;;;;;;;;;25.25;22.50;;;;;-143.90;89.43;74459.03;4999929;27;101946;-77
2023/10/19 09:28:47;;;;;;;;;26.75;22.50;;;;;-143.90;87.36;74452.84;4995455;27;101591;-77
2023/10/19 09:31:16;;;;;;;;;22.00;14.00;;;;;-143.90;87.21;74419.75;4995450;28;103404;-77
2023/10/19 09:33:47;;;;;;;;;20.50;16.25;;;;;-143.90;86.82;74386.69;4991924;27;101577;-77
2023/10/19 09:36:14;;;;;;;;;18.75;15.75;;;;;-143.90;87.03;74374.28;4998161;27;101909;-76
2023/10/19 09:38:50;;;;;;;;;18.00;15.00;;;;;-143.90;82.44;74357.75;4995631;27;101873;-76
2023/10/19 09:41:21;;;;;;;;;21.00;18.50;;;;;-143.90;86.55;74357.75;4991641;27;103744;-76
2023/10/19 09:43:49;;;;;;;;;20.25;17.50;;;;;-143.90;84.87;74376.34;4998420;27;102127;-75
2023/10/19 09:46:26;;;;;;;;;13.50;11.50;;;;;-143.90;84.54;74353.63;4992457;27;102063;-76
2023/10/19 09:48:53;;;;;;;;;10.75;10.75;;;;;-143.90;84.71;74349.47;4998807;28;101658;-76
2023/10/19 09:51:22;;;;;;;;;13.25;11.00;;;;;-143.90;83.58;74345.34;4992351;28;103917;-77
2023/10/19 09:54:00;;;;;;;;;11.25;9.25;;;;;-143.90;82.25;74339.16;5002744;28;101594;-76
2023/10/19 09:56:35;;;;;;;;;9.00;7.00;;;;;-143.90;82.67;74330.88;4990704;28;101944;-74
2023/10/19 09:59:07;;;;;;;;;10.00;8.00;;;;;-143.90;82.52;74324.69;4995831;28;102050;-77
2023/10/19 10:02:12;;;;;;;;;10.00;6.50;;;;;-143.90;82.84;74308.13;4992822;28;103347;-75
2023/10/19 10:04:40;;;;;;;;;9.25;8.00;;;;;-143.90;81.15;74297.81;4989106;28;102036;-76
2023/10/19 10:07:09;;;;;;;;;7.00;5.00;;;;;-143.90;79.91;74287.47;4996351;28;101654;-76
2023/10/19 10:09:40;;;;;;;;;6.00;5.00;;;;;-143.90;81.04;74287.47;4994789;27;102302;-76
2023/10/19 10:12:18;;;;;;;;;5.00;5.00;;;;;-143.90;81.48;74273.00;4980011;28;103383;-75
2023/10/19 10:15:08;;;;;;;;;7.00;6.50;;;;;-143.90;85.72;74256.47;4990618;28;101729;-76
2023/10/19 10:17:39;;;;;;;;;4.25;4.00;;;;;-143.90;85.96;74246.13;4997241;27;101779;-76
2023/10/19 10:20:17;;;;;;;;;4.00;4.00;;;;;-143.90;83.90;74248.19;4992579;28;101626;-76
2023/10/19 10:22:44;;;;;;;;;7.25;5.50;;;;;-143.90;83.86;74246.13;4999901;28;103546;-77
2023/10/19 10:25:27;;;;;;;;;8.00;7.50;;;;;-143.90;86.27;74225.47;4989752;27;102922;-76
2023/10/19 10:27:55;;;;;;;;;4.00;4.00;;;;;-143.90;84.59;74215.13;5006440;27;101921;-76
2023/10/19 10:30:22;;;;;;;;;7.00;5.50;;;;;-143.90;84.60;74204.78;4996542;27;101658;-77
2023/10/19 10:32:55;;;;;;;;;15.75;12.00;;;;;-143.90;85.01;74190.31;4981671;28;103551;-76
2023/10/19 10:35:38;;;;;;;;;8.00;7.00;;;;;-143.90;84.84;74186.19;4995410;27;101789;-76
2023/10/19 10:38:09;;;;;;;;;9.00;8.00;;;;;-143.90;87.51;74180.00;5002538;27;101948;-76
2023/10/19 10:40:48;;;;;;;;;18.75;15.00;;;;;-143.90;85.65;74167.59;4998781;28;101701;-76
2023/10/19 10:43:16;;;;;;;;;14.25;14.00;;;;;-143.90;88.29;74151.06;4997870;27;103380;-77
2023/10/19 10:45:43;;;;;;;;;22.00;19.75;;;;;-143.90;89.26;74175.84;4999055;27;101731;-75
2023/10/19 10:48:17;;;;;;;;;17.25;16.25;;;;;-143.90;87.84;74159.31;4995101;27;101885;-76
2023/10/19 10:50:45;;;;;;;;;10.75;9.00;;;;;-143.90;88.49;74142.78;5003434;27;102958;-76
2023/10/19 10:53:15;;;;;;;;;15.75;12.00;;;;;-143.90;86.92;74151.06;4995340;28;103482;-76
2023/10/19 10:55:42;;;;;;;;;15.75;14.00;;;;;-143.90;87.17;74155.19;4999384;27;102099;-77
2023/10/19 10:58:14;;;;;;;;;15.25;13.00;;;;;-143.90;88.23;74159.31;4995944;27;101741;-76
2023/10/19 11:00:46;;;;;;;;;11.25;10.75;;;;;-143.90;88.44;74171.72;5001755;28;101887;-75
2023/10/19 11:03:15;;;;;;;;;19.00;18.00;;;;;-143.90;95.53;74204.78;4994854;28;103859;-76
2023/10/19 11:05:45;;;;;;;;;18.25;18.00;;;;;-143.90;97.41;74190.31;4998329;28;102114;-75
2023/10/19 11:08:14;;;;;;;;;16.50;13.75;;;;;-143.90;95.59;74180.00;4996731;28;103095;-76
2023/10/19 11:10:44;;;;;;;;;22.75;20.75;;;;;-143.90;98.07;74198.59;4999191;28;102100;-76
2023/10/19 11:13:13;;;;;;;;;22.00;21.25;;;;;-143.90;98.73;74202.72;4977967;28;103411;-78
2023/10/19 11:15:53;;;;;;;;;27.75;23.75;;;;;-143.90;96.38;74219.25;4993774;28;102015;-76
2023/10/19 11:18:35;;;;;;;;;33.25;31.50;;;;;-143.90;97.64;74225.47;5001233;28;101682;-77
2023/10/19 11:21:14;;;;;;;;;32.25;30.25;;;;;-143.90;97.84;74229.59;4975893;28;101905;-77
2023/10/19 11:23:49;;;;;;;;;28.00;23.75;;;;;-143.90;100.00;74244.06;4997000;28;104790;-77